sensor_id;sensor_type;location;lat;lon;timestamp;temperature;humidity
18898;DHT22;9581;49.484;8.556;2023-04-03T00:01:24;5.60;99.90
18898;DHT22;9581;49.484;8.556;2023-04-03T00:03:51;5.60;99.90
18898;DHT22;9581;49.484;8.556;2023-04-03T00:06:19;5.90;99.90
18898;DHT22;9581;49.484;8.556;2023-04-03T00:08:46;6.10;99.90
18898;DHT22;9581;49.484;8.556;2023-04-03T00:11:13;5.60;99.90
18898;DHT22;9581;49.484;8.556;2023-04-03T00:13:40;6.20;99.90
18898;DHT22;9581;49.484;8.556;2023-04-03T00:16:08;6.40;99.90
18898;DHT22;9581;49.484;8.556;2023-04-03T00:18:36;6.60;99.90
18898;DHT22;9581;49.484;8.556;2023-04-03T00:21:04;6.40;99.90
18898;DHT22;9581;49.484;8.556;2023-04-03T00:23:32;6.20;99.90
18898;DHT22;9581;49.484;8.556;2023-04-03T00:25:59;6.10;99.90
18898;DHT22;9581;49.484;8.556;2023-04-03T00:28:26;6.00;99.90
18898;DHT22;9581;49.484;8.556;2023-04-03T00:30:53;6.20;99.90
18898;DHT22;9581;49.484;8.556;2023-04-03T00:33:20;6.00;99.90
18898;DHT22;9581;49.484;8.556;2023-04-03T00:35:48;6.00;99.90
18898;DHT22;9581;49.484;8.556;2023-04-03T00:38:15;5.90;99.90
18898;DHT22;9581;49.484;8.556;2023-04-03T00:40:45;5.90;99.90
18898;DHT22;9581;49.484;8.556;2023-04-03T00:43:13;5.60;99.90
18898;DHT22;9581;49.484;8.556;2023-04-03T00:45:42;5.70;99.90
18898;DHT22;9581;49.484;8.556;2023-04-03T00:48:12;5.40;99.90
18898;DHT22;9581;49.484;8.556;2023-04-03T00:50:41;5.00;99.90
18898;DHT22;9581;49.484;8.556;2023-04-03T00:53:13;5.00;99.90
18898;DHT22;9581;49.484;8.556;2023-04-03T00:55:42;5.00;99.90
18898;DHT22;9581;49.484;8.556;2023-04-03T00:58:10;4.90;99.90
18898;DHT22;9581;49.484;8.556;2023-04-03T01:00:40;4.80;99.90
18898;DHT22;9581;49.484;8.556;2023-04-03T01:03:08;4.60;99.90
18898;DHT22;9581;49.484;8.556;2023-04-03T01:05:35;5.00;99.90
18898;DHT22;9581;49.484;8.556;2023-04-03T01:08:02;4.90;99.90
18898;DHT22;9581;49.484;8.556;2023-04-03T01:10:29;4.70;99.90
18898;DHT22;9581;49.484;8.556;2023-04-03T01:13:00;4.70;99.90
18898;DHT22;9581;49.484;8.556;2023-04-03T01:15:28;5.10;99.90
18898;DHT22;9581;49.484;8.556;2023-04-03T01:17:56;5.10;99.90
18898;DHT22;9581;49.484;8.556;2023-04-03T01:20:57;5.20;99.90
18898;DHT22;9581;49.484;8.556;2023-04-03T01:23:43;5.20;99.90
18898;DHT22;9581;49.484;8.556;2023-04-03T01:26:12;5.30;99.90
18898;DHT22;9581;49.484;8.556;2023-04-03T01:28:40;5.50;99.90
18898;DHT22;9581;49.484;8.556;2023-04-03T01:31:14;5.20;99.90
18898;DHT22;9581;49.484;8.556;2023-04-03T01:33:44;5.10;99.90
18898;DHT22;9581;49.484;8.556;2023-04-03T01:36:17;5.00;99.90
18898;DHT22;9581;49.484;8.556;2023-04-03T01:38:44;5.20;99.90
18898;DHT22;9581;49.484;8.556;2023-04-03T01:41:11;5.10;99.90
18898;DHT22;9581;49.484;8.556;2023-04-03T01:43:38;5.40;99.90
18898;DHT22;9581;49.484;8.556;2023-04-03T01:46:05;5.50;99.90
18898;DHT22;9581;49.484;8.556;2023-04-03T01:48:32;5.20;99.90
18898;DHT22;9581;49.484;8.556;2023-04-03T01:51:00;4.90;99.90
18898;DHT22;9581;49.484;8.556;2023-04-03T01:53:27;5.10;99.90
18898;DHT22;9581;49.484;8.556;2023-04-03T01:55:54;5.00;99.90
18898;DHT22;9581;49.484;8.556;2023-04-03T01:58:21;5.10;99.90
18898;DHT22;9581;49.484;8.556;2023-04-03T02:00:48;4.70;99.90
18898;DHT22;9581;49.484;8.556;2023-04-03T02:03:14;4.60;99.90
18898;DHT22;9581;49.484;8.556;2023-04-03T02:05:41;4.40;99.90
18898;DHT22;9581;49.484;8.556;2023-04-03T02:08:09;4.70;99.90
18898;DHT22;9581;49.484;8.556;2023-04-03T02:10:36;4.40;99.90
18898;DHT22;9581;49.484;8.556;2023-04-03T02:13:04;4.00;99.90
18898;DHT22;9581;49.484;8.556;2023-04-03T02:15:30;4.30;99.90
18898;DHT22;9581;49.484;8.556;2023-04-03T02:17:57;4.20;99.90
18898;DHT22;9581;49.484;8.556;2023-04-03T02:20:24;4.00;99.90
18898;DHT22;9581;49.484;8.556;2023-04-03T02:22:51;4.20;99.90
18898;DHT22;9581;49.484;8.556;2023-04-03T02:25:19;4.10;99.90
18898;DHT22;9581;49.484;8.556;2023-04-03T02:27:46;4.10;99.90
18898;DHT22;9581;49.484;8.556;2023-04-03T02:30:13;4.20;99.90
18898;DHT22;9581;49.484;8.556;2023-04-03T02:32:41;4.00;99.90
18898;DHT22;9581;49.484;8.556;2023-04-03T02:35:09;3.80;99.90
18898;DHT22;9581;49.484;8.556;2023-04-03T02:37:36;4.00;99.90
18898;DHT22;9581;49.484;8.556;2023-04-03T02:40:04;3.90;99.90
18898;DHT22;9581;49.484;8.556;2023-04-03T02:42:32;4.20;99.90
18898;DHT22;9581;49.484;8.556;2023-04-03T02:45:00;4.50;99.90
18898;DHT22;9581;49.484;8.556;2023-04-03T02:47:26;4.30;99.90
18898;DHT22;9581;49.484;8.556;2023-04-03T02:49:53;4.50;99.90
18898;DHT22;9581;49.484;8.556;2023-04-03T02:52:20;4.80;99.90
18898;DHT22;9581;49.484;8.556;2023-04-03T02:54:47;4.80;99.90
18898;DHT22;9581;49.484;8.556;2023-04-03T02:57:14;4.90;99.90
18898;DHT22;9581;49.484;8.556;2023-04-03T02:59:42;5.10;99.90
18898;DHT22;9581;49.484;8.556;2023-04-03T03:02:10;5.00;99.90
18898;DHT22;9581;49.484;8.556;2023-04-03T03:04:37;5.00;99.90
18898;DHT22;9581;49.484;8.556;2023-04-03T03:07:04;4.80;99.90
18898;DHT22;9581;49.484;8.556;2023-04-03T03:09:31;5.10;99.90
18898;DHT22;9581;49.484;8.556;2023-04-03T03:11:57;5.20;99.90
18898;DHT22;9581;49.484;8.556;2023-04-03T03:14:24;5.00;99.90
18898;DHT22;9581;49.484;8.556;2023-04-03T03:16:52;5.00;99.90
18898;DHT22;9581;49.484;8.556;2023-04-03T03:19:19;5.00;99.90
18898;DHT22;9581;49.484;8.556;2023-04-03T03:21:46;5.10;99.90
18898;DHT22;9581;49.484;8.556;2023-04-03T03:24:13;5.10;99.90
18898;DHT22;9581;49.484;8.556;2023-04-03T03:26:41;5.10;99.90
18898;DHT22;9581;49.484;8.556;2023-04-03T03:29:08;4.90;99.90
18898;DHT22;9581;49.484;8.556;2023-04-03T03:31:35;5.10;99.90
18898;DHT22;9581;49.484;8.556;2023-04-03T03:34:03;5.20;99.90
18898;DHT22;9581;49.484;8.556;2023-04-03T03:36:30;5.00;99.90
18898;DHT22;9581;49.484;8.556;2023-04-03T03:38:57;5.00;99.90
18898;DHT22;9581;49.484;8.556;2023-04-03T03:41:23;4.90;99.90
18898;DHT22;9581;49.484;8.556;2023-04-03T03:43:50;4.90;99.90
18898;DHT22;9581;49.484;8.556;2023-04-03T03:46:17;4.80;99.90
18898;DHT22;9581;49.484;8.556;2023-04-03T03:48:44;4.70;99.90
18898;DHT22;9581;49.484;8.556;2023-04-03T03:51:12;4.80;99.90
18898;DHT22;9581;49.484;8.556;2023-04-03T03:53:39;4.80;99.90
18898;DHT22;9581;49.484;8.556;2023-04-03T03:56:06;4.80;99.90
18898;DHT22;9581;49.484;8.556;2023-04-03T03:58:33;4.80;99.90
18898;DHT22;9581;49.484;8.556;2023-04-03T04:01:01;3.90;99.90
18898;DHT22;9581;49.484;8.556;2023-04-03T04:03:28;3.60;99.90
18898;DHT22;9581;49.484;8.556;2023-04-03T04:05:55;3.80;99.90
18898;DHT22;9581;49.484;8.556;2023-04-03T04:08:23;3.60;99.90
18898;DHT22;9581;49.484;8.556;2023-04-03T04:10:50;3.50;99.90
18898;DHT22;9581;49.484;8.556;2023-04-03T04:13:17;3.40;99.90
18898;DHT22;9581;49.484;8.556;2023-04-03T04:15:44;3.20;99.90
18898;DHT22;9581;49.484;8.556;2023-04-03T04:18:11;3.30;99.90
18898;DHT22;9581;49.484;8.556;2023-04-03T04:20:38;3.30;99.90
18898;DHT22;9581;49.484;8.556;2023-04-03T04:23:05;3.50;99.90
18898;DHT22;9581;49.484;8.556;2023-04-03T04:25:33;3.60;99.90
18898;DHT22;9581;49.484;8.556;2023-04-03T04:28:00;3.50;99.90
18898;DHT22;9581;49.484;8.556;2023-04-03T04:30:27;3.00;99.90
18898;DHT22;9581;49.484;8.556;2023-04-03T04:32:53;3.20;99.90
18898;DHT22;9581;49.484;8.556;2023-04-03T04:35:20;3.00;99.90
18898;DHT22;9581;49.484;8.556;2023-04-03T04:37:47;2.70;99.90
18898;DHT22;9581;49.484;8.556;2023-04-03T04:40:14;3.20;99.90
18898;DHT22;9581;49.484;8.556;2023-04-03T04:42:43;2.80;99.90
18898;DHT22;9581;49.484;8.556;2023-04-03T04:45:10;2.80;99.90
18898;DHT22;9581;49.484;8.556;2023-04-03T04:47:37;2.70;99.90
18898;DHT22;9581;49.484;8.556;2023-04-03T04:50:04;2.80;99.90
18898;DHT22;9581;49.484;8.556;2023-04-03T04:52:31;2.70;99.90
18898;DHT22;9581;49.484;8.556;2023-04-03T04:54:58;3.30;99.90
18898;DHT22;9581;49.484;8.556;2023-04-03T04:57:25;3.70;99.90
18898;DHT22;9581;49.484;8.556;2023-04-03T04:59:54;4.00;99.90
18898;DHT22;9581;49.484;8.556;2023-04-03T05:02:20;4.20;99.90
18898;DHT22;9581;49.484;8.556;2023-04-03T05:04:47;3.70;99.90
18898;DHT22;9581;49.484;8.556;2023-04-03T05:07:15;3.60;99.90
18898;DHT22;9581;49.484;8.556;2023-04-03T05:09:42;3.20;99.90
18898;DHT22;9581;49.484;8.556;2023-04-03T05:12:09;3.30;99.90
18898;DHT22;9581;49.484;8.556;2023-04-03T05:14:36;3.30;99.90
18898;DHT22;9581;49.484;8.556;2023-04-03T05:17:04;3.30;99.90
18898;DHT22;9581;49.484;8.556;2023-04-03T05:19:31;3.90;99.90
18898;DHT22;9581;49.484;8.556;2023-04-03T05:21:58;4.00;99.90
18898;DHT22;9581;49.484;8.556;2023-04-03T05:24:25;4.30;99.90
18898;DHT22;9581;49.484;8.556;2023-04-03T05:26:52;4.30;99.90
18898;DHT22;9581;49.484;8.556;2023-04-03T05:29:19;3.80;99.90
18898;DHT22;9581;49.484;8.556;2023-04-03T05:31:45;4.10;99.90
18898;DHT22;9581;49.484;8.556;2023-04-03T05:34:14;3.50;99.90
18898;DHT22;9581;49.484;8.556;2023-04-03T05:36:40;3.70;99.90
18898;DHT22;9581;49.484;8.556;2023-04-03T05:39:08;3.80;99.90
18898;DHT22;9581;49.484;8.556;2023-04-03T05:41:36;3.90;99.90
18898;DHT22;9581;49.484;8.556;2023-04-03T05:44:02;4.30;99.90
18898;DHT22;9581;49.484;8.556;2023-04-03T05:46:29;4.50;99.90
18898;DHT22;9581;49.484;8.556;2023-04-03T05:48:56;4.60;99.90
18898;DHT22;9581;49.484;8.556;2023-04-03T05:51:28;4.80;99.90
18898;DHT22;9581;49.484;8.556;2023-04-03T05:54:00;4.50;99.90
18898;DHT22;9581;49.484;8.556;2023-04-03T05:56:27;4.40;99.90
18898;DHT22;9581;49.484;8.556;2023-04-03T05:58:54;4.60;99.90
18898;DHT22;9581;49.484;8.556;2023-04-03T06:01:21;4.80;99.90
18898;DHT22;9581;49.484;8.556;2023-04-03T06:03:48;4.80;99.90
18898;DHT22;9581;49.484;8.556;2023-04-03T06:06:15;4.90;99.90
18898;DHT22;9581;49.484;8.556;2023-04-03T06:08:43;4.70;99.90
18898;DHT22;9581;49.484;8.556;2023-04-03T06:11:11;4.90;99.90
18898;DHT22;9581;49.484;8.556;2023-04-03T06:13:38;5.10;99.90
18898;DHT22;9581;49.484;8.556;2023-04-03T06:16:05;5.20;99.90
18898;DHT22;9581;49.484;8.556;2023-04-03T06:18:32;5.30;99.90
18898;DHT22;9581;49.484;8.556;2023-04-03T06:20:59;5.40;99.90
18898;DHT22;9581;49.484;8.556;2023-04-03T06:23:26;5.50;99.90
18898;DHT22;9581;49.484;8.556;2023-04-03T06:25:55;5.50;99.90
18898;DHT22;9581;49.484;8.556;2023-04-03T06:28:22;5.50;99.90
18898;DHT22;9581;49.484;8.556;2023-04-03T06:30:48;5.60;99.90
18898;DHT22;9581;49.484;8.556;2023-04-03T06:33:15;5.80;99.90
18898;DHT22;9581;49.484;8.556;2023-04-03T06:35:42;5.70;99.90
18898;DHT22;9581;49.484;8.556;2023-04-03T06:38:09;5.80;99.90
18898;DHT22;9581;49.484;8.556;2023-04-03T06:40:36;6.00;99.90
18898;DHT22;9581;49.484;8.556;2023-04-03T06:43:05;6.00;99.90
18898;DHT22;9581;49.484;8.556;2023-04-03T06:45:32;6.00;99.90
18898;DHT22;9581;49.484;8.556;2023-04-03T06:47:59;6.10;99.90
18898;DHT22;9581;49.484;8.556;2023-04-03T06:50:26;5.90;99.90
18898;DHT22;9581;49.484;8.556;2023-04-03T06:52:53;6.00;99.90
18898;DHT22;9581;49.484;8.556;2023-04-03T06:55:20;6.30;99.90
18898;DHT22;9581;49.484;8.556;2023-04-03T06:57:47;6.30;99.90
18898;DHT22;9581;49.484;8.556;2023-04-03T07:00:16;6.30;99.90
18898;DHT22;9581;49.484;8.556;2023-04-03T07:02:43;6.30;99.90
18898;DHT22;9581;49.484;8.556;2023-04-03T07:05:11;6.50;99.90
18898;DHT22;9581;49.484;8.556;2023-04-03T07:07:37;6.60;99.90
18898;DHT22;9581;49.484;8.556;2023-04-03T07:10:06;6.50;99.90
18898;DHT22;9581;49.484;8.556;2023-04-03T07:12:33;6.60;99.90
18898;DHT22;9581;49.484;8.556;2023-04-03T07:15:00;6.80;99.90
18898;DHT22;9581;49.484;8.556;2023-04-03T07:17:28;6.80;99.90
18898;DHT22;9581;49.484;8.556;2023-04-03T07:19:55;7.00;99.90
18898;DHT22;9581;49.484;8.556;2023-04-03T07:22:21;7.00;99.90
18898;DHT22;9581;49.484;8.556;2023-04-03T07:24:48;7.10;99.90
18898;DHT22;9581;49.484;8.556;2023-04-03T07:27:15;7.10;99.90
18898;DHT22;9581;49.484;8.556;2023-04-03T07:29:43;7.20;99.90
18898;DHT22;9581;49.484;8.556;2023-04-03T07:32:10;7.20;99.90
18898;DHT22;9581;49.484;8.556;2023-04-03T07:34:38;7.20;99.90
18898;DHT22;9581;49.484;8.556;2023-04-03T07:37:05;7.40;99.90
18898;DHT22;9581;49.484;8.556;2023-04-03T07:39:32;7.40;99.90
18898;DHT22;9581;49.484;8.556;2023-04-03T07:41:59;7.60;99.90
18898;DHT22;9581;49.484;8.556;2023-04-03T07:44:27;7.80;99.90
18898;DHT22;9581;49.484;8.556;2023-04-03T07:46:54;8.00;99.90
18898;DHT22;9581;49.484;8.556;2023-04-03T07:49:21;7.80;99.90
18898;DHT22;9581;49.484;8.556;2023-04-03T07:51:50;8.00;99.90
18898;DHT22;9581;49.484;8.556;2023-04-03T07:54:18;8.30;99.90
18898;DHT22;9581;49.484;8.556;2023-04-03T07:56:45;8.50;99.90
18898;DHT22;9581;49.484;8.556;2023-04-03T07:59:12;8.60;99.90
18898;DHT22;9581;49.484;8.556;2023-04-03T08:01:38;8.70;99.90
18898;DHT22;9581;49.484;8.556;2023-04-03T08:04:05;8.90;99.90
18898;DHT22;9581;49.484;8.556;2023-04-03T08:06:32;8.80;99.90
18898;DHT22;9581;49.484;8.556;2023-04-03T08:09:02;8.90;99.90
18898;DHT22;9581;49.484;8.556;2023-04-03T08:11:30;8.80;99.90
18898;DHT22;9581;49.484;8.556;2023-04-03T08:13:57;9.00;99.90
18898;DHT22;9581;49.484;8.556;2023-04-03T08:16:24;9.20;99.90
18898;DHT22;9581;49.484;8.556;2023-04-03T08:18:52;9.20;99.90
18898;DHT22;9581;49.484;8.556;2023-04-03T08:21:19;9.30;99.90
18898;DHT22;9581;49.484;8.556;2023-04-03T08:23:48;9.60;99.90
18898;DHT22;9581;49.484;8.556;2023-04-03T08:26:18;9.50;99.90
18898;DHT22;9581;49.484;8.556;2023-04-03T08:28:46;9.70;99.90
18898;DHT22;9581;49.484;8.556;2023-04-03T08:31:15;9.30;99.90
18898;DHT22;9581;49.484;8.556;2023-04-03T08:33:42;9.80;99.90
18898;DHT22;9581;49.484;8.556;2023-04-03T08:36:17;9.80;99.90
18898;DHT22;9581;49.484;8.556;2023-04-03T08:38:45;9.70;99.90
18898;DHT22;9581;49.484;8.556;2023-04-03T08:41:18;9.60;99.90
18898;DHT22;9581;49.484;8.556;2023-04-03T08:44:07;9.60;99.90
18898;DHT22;9581;49.484;8.556;2023-04-03T08:46:47;9.80;99.90
18898;DHT22;9581;49.484;8.556;2023-04-03T08:49:22;9.60;99.90
18898;DHT22;9581;49.484;8.556;2023-04-03T08:51:51;10.00;99.90
18898;DHT22;9581;49.484;8.556;2023-04-03T08:54:28;10.20;99.90
18898;DHT22;9581;49.484;8.556;2023-04-03T08:56:59;10.00;99.90
18898;DHT22;9581;49.484;8.556;2023-04-03T08:59:32;9.80;99.90
18898;DHT22;9581;49.484;8.556;2023-04-03T09:02:04;10.00;99.90
18898;DHT22;9581;49.484;8.556;2023-04-03T09:04:41;10.20;99.90
18898;DHT22;9581;49.484;8.556;2023-04-03T09:07:14;10.30;99.90
18898;DHT22;9581;49.484;8.556;2023-04-03T09:09:43;10.10;99.90
18898;DHT22;9581;49.484;8.556;2023-04-03T09:12:17;10.20;99.90
18898;DHT22;9581;49.484;8.556;2023-04-03T09:14:51;10.40;99.90
18898;DHT22;9581;49.484;8.556;2023-04-03T09:17:25;10.50;99.90
18898;DHT22;9581;49.484;8.556;2023-04-03T09:19:58;10.50;99.90
18898;DHT22;9581;49.484;8.556;2023-04-03T09:22:26;10.50;99.90
18898;DHT22;9581;49.484;8.556;2023-04-03T09:24:57;10.50;99.90
18898;DHT22;9581;49.484;8.556;2023-04-03T09:27:27;10.50;99.90
18898;DHT22;9581;49.484;8.556;2023-04-03T09:29:57;10.70;99.90
18898;DHT22;9581;49.484;8.556;2023-04-03T09:32:27;10.60;99.90
18898;DHT22;9581;49.484;8.556;2023-04-03T09:34:57;10.40;99.90
18898;DHT22;9581;49.484;8.556;2023-04-03T09:37:38;10.50;99.90
18898;DHT22;9581;49.484;8.556;2023-04-03T09:40:06;10.70;99.90
18898;DHT22;9581;49.484;8.556;2023-04-03T09:42:56;10.80;99.90
18898;DHT22;9581;49.484;8.556;2023-04-03T09:45:26;10.90;99.90
18898;DHT22;9581;49.484;8.556;2023-04-03T09:48:05;11.00;99.90
18898;DHT22;9581;49.484;8.556;2023-04-03T09:50:33;11.00;99.90
18898;DHT22;9581;49.484;8.556;2023-04-03T09:53:05;11.10;99.90
18898;DHT22;9581;49.484;8.556;2023-04-03T09:55:42;11.20;99.90
18898;DHT22;9581;49.484;8.556;2023-04-03T09:58:24;11.10;98.90
18898;DHT22;9581;49.484;8.556;2023-04-03T10:00:55;11.50;99.90
18898;DHT22;9581;49.484;8.556;2023-04-03T10:03:25;11.70;99.10
18898;DHT22;9581;49.484;8.556;2023-04-03T10:05:53;11.50;97.40
18898;DHT22;9581;49.484;8.556;2023-04-03T10:08:23;11.50;97.20
18898;DHT22;9581;49.484;8.556;2023-04-03T10:11:09;11.40;98.30
18898;DHT22;9581;49.484;8.556;2023-04-03T10:13:49;11.40;96.70
18898;DHT22;9581;49.484;8.556;2023-04-03T10:16:18;11.80;96.80
18898;DHT22;9581;49.484;8.556;2023-04-03T10:18:50;11.70;97.20
18898;DHT22;9581;49.484;8.556;2023-04-03T10:21:29;11.90;96.30
18898;DHT22;9581;49.484;8.556;2023-04-03T10:24:06;12.20;95.70
18898;DHT22;9581;49.484;8.556;2023-04-03T10:26:41;12.50;97.20
18898;DHT22;9581;49.484;8.556;2023-04-03T10:29:20;12.50;95.40
18898;DHT22;9581;49.484;8.556;2023-04-03T10:31:53;12.50;94.90
18898;DHT22;9581;49.484;8.556;2023-04-03T10:34:27;12.80;95.00
18898;DHT22;9581;49.484;8.556;2023-04-03T10:37:00;12.90;94.10
18898;DHT22;9581;49.484;8.556;2023-04-03T10:39:35;13.10;94.60
18898;DHT22;9581;49.484;8.556;2023-04-03T10:42:09;13.50;94.10
18898;DHT22;9581;49.484;8.556;2023-04-03T10:44:52;13.60;93.80
18898;DHT22;9581;49.484;8.556;2023-04-03T10:47:24;13.70;93.40
18898;DHT22;9581;49.484;8.556;2023-04-03T10:49:58;13.60;92.70
18898;DHT22;9581;49.484;8.556;2023-04-03T10:52:31;12.60;91.30
18898;DHT22;9581;49.484;8.556;2023-04-03T10:55:08;12.00;92.40
18898;DHT22;9581;49.484;8.556;2023-04-03T10:57:40;11.70;91.80
18898;DHT22;9581;49.484;8.556;2023-04-03T11:00:16;12.00;94.20
18898;DHT22;9581;49.484;8.556;2023-04-03T11:02:49;12.20;94.30
18898;DHT22;9581;49.484;8.556;2023-04-03T11:05:25;12.30;93.40
18898;DHT22;9581;49.484;8.556;2023-04-03T11:07:55;11.90;93.10
18898;DHT22;9581;49.484;8.556;2023-04-03T11:10:29;11.70;93.10
18898;DHT22;9581;49.484;8.556;2023-04-03T11:12:59;11.90;93.10
18898;DHT22;9581;49.484;8.556;2023-04-03T11:15:32;11.80;93.70
18898;DHT22;9581;49.484;8.556;2023-04-03T11:18:04;11.70;93.20
18898;DHT22;9581;49.484;8.556;2023-04-03T11:20:33;11.70;92.40
18898;DHT22;9581;49.484;8.556;2023-04-03T11:23:05;12.20;94.10
18898;DHT22;9581;49.484;8.556;2023-04-03T11:25:35;12.80;93.30
18898;DHT22;9581;49.484;8.556;2023-04-03T11:28:04;13.10;93.70
18898;DHT22;9581;49.484;8.556;2023-04-03T11:30:39;13.10;93.40
18898;DHT22;9581;49.484;8.556;2023-04-03T11:33:32;13.30;91.90
18898;DHT22;9581;49.484;8.556;2023-04-03T11:36:07;13.20;92.90
18898;DHT22;9581;49.484;8.556;2023-04-03T11:38:37;13.20;92.10
18898;DHT22;9581;49.484;8.556;2023-04-03T11:41:08;13.10;92.00
18898;DHT22;9581;49.484;8.556;2023-04-03T11:43:41;13.10;91.10
18898;DHT22;9581;49.484;8.556;2023-04-03T11:46:09;13.50;91.80
18898;DHT22;9581;49.484;8.556;2023-04-03T11:48:49;13.30;90.80
18898;DHT22;9581;49.484;8.556;2023-04-03T11:54:46;12.60;90.20
18898;DHT22;9581;49.484;8.556;2023-04-03T12:00:49;11.70;91.00
18898;DHT22;9581;49.484;8.556;2023-04-03T12:07:00;11.50;91.20
18898;DHT22;9581;49.484;8.556;2023-04-03T12:09:33;11.10;91.20
18898;DHT22;9581;49.484;8.556;2023-04-03T12:12:21;11.20;91.80
18898;DHT22;9581;49.484;8.556;2023-04-03T12:14:48;11.20;92.80
18898;DHT22;9581;49.484;8.556;2023-04-03T12:17:22;11.50;90.80
18898;DHT22;9581;49.484;8.556;2023-04-03T12:19:51;11.50;90.60
18898;DHT22;9581;49.484;8.556;2023-04-03T12:22:19;11.40;90.40
18898;DHT22;9581;49.484;8.556;2023-04-03T12:24:48;11.30;91.70
18898;DHT22;9581;49.484;8.556;2023-04-03T12:27:26;11.70;89.40
18898;DHT22;9581;49.484;8.556;2023-04-03T12:29:58;11.70;91.50
18898;DHT22;9581;49.484;8.556;2023-04-03T12:35:28;12.10;90.90
18898;DHT22;9581;49.484;8.556;2023-04-03T12:38:17;12.00;91.70
18898;DHT22;9581;49.484;8.556;2023-04-03T12:40:54;12.60;91.30
18898;DHT22;9581;49.484;8.556;2023-04-03T12:43:35;12.40;89.40
18898;DHT22;9581;49.484;8.556;2023-04-03T12:46:07;12.10;90.30
18898;DHT22;9581;49.484;8.556;2023-04-03T12:48:46;11.90;89.40
18898;DHT22;9581;49.484;8.556;2023-04-03T12:51:16;11.50;90.40
18898;DHT22;9581;49.484;8.556;2023-04-03T12:53:45;11.70;90.20
18898;DHT22;9581;49.484;8.556;2023-04-03T12:56:20;12.20;90.50
18898;DHT22;9581;49.484;8.556;2023-04-03T12:58:48;13.10;90.80
18898;DHT22;9581;49.484;8.556;2023-04-03T13:01:17;13.20;91.30
18898;DHT22;9581;49.484;8.556;2023-04-03T13:03:48;13.20;89.60
18898;DHT22;9581;49.484;8.556;2023-04-03T13:06:21;12.70;89.00
18898;DHT22;9581;49.484;8.556;2023-04-03T13:08:50;12.70;88.50
18898;DHT22;9581;49.484;8.556;2023-04-03T13:11:18;13.30;87.60
18898;DHT22;9581;49.484;8.556;2023-04-03T13:13:57;13.50;86.00
18898;DHT22;9581;49.484;8.556;2023-04-03T13:16:24;14.10;85.80
18898;DHT22;9581;49.484;8.556;2023-04-03T13:18:53;14.60;83.90
18898;DHT22;9581;49.484;8.556;2023-04-03T13:21:23;14.80;82.40
18898;DHT22;9581;49.484;8.556;2023-04-03T13:23:53;15.10;84.80
18898;DHT22;9581;49.484;8.556;2023-04-03T13:26:22;14.50;85.40
18898;DHT22;9581;49.484;8.556;2023-04-03T13:28:52;14.10;84.90
18898;DHT22;9581;49.484;8.556;2023-04-03T13:31:22;13.50;82.70
18898;DHT22;9581;49.484;8.556;2023-04-03T13:33:55;13.00;84.80
18898;DHT22;9581;49.484;8.556;2023-04-03T13:36:26;13.10;84.00
18898;DHT22;9581;49.484;8.556;2023-04-03T13:39:05;14.30;86.20
18898;DHT22;9581;49.484;8.556;2023-04-03T13:41:34;14.60;84.90
18898;DHT22;9581;49.484;8.556;2023-04-03T13:44:28;14.80;85.00
18898;DHT22;9581;49.484;8.556;2023-04-03T13:46:57;14.90;79.30
18898;DHT22;9581;49.484;8.556;2023-04-03T13:49:30;14.40;80.40
18898;DHT22;9581;49.484;8.556;2023-04-03T13:51:59;13.40;82.10
18898;DHT22;9581;49.484;8.556;2023-04-03T13:54:31;13.20;84.00
18898;DHT22;9581;49.484;8.556;2023-04-03T13:57:00;12.90;83.10
18898;DHT22;9581;49.484;8.556;2023-04-03T13:59:30;12.40;81.20
18898;DHT22;9581;49.484;8.556;2023-04-03T14:02:13;12.30;80.80
18898;DHT22;9581;49.484;8.556;2023-04-03T14:04:52;13.30;78.80
18898;DHT22;9581;49.484;8.556;2023-04-03T14:07:23;14.80;75.20
18898;DHT22;9581;49.484;8.556;2023-04-03T14:09:50;16.30;71.00
18898;DHT22;9581;49.484;8.556;2023-04-03T14:12:19;16.10;71.50
18898;DHT22;9581;49.484;8.556;2023-04-03T14:14:47;17.30;69.20
18898;DHT22;9581;49.484;8.556;2023-04-03T14:17:17;18.00;67.70
18898;DHT22;9581;49.484;8.556;2023-04-03T14:19:44;18.40;67.00
18898;DHT22;9581;49.484;8.556;2023-04-03T14:22:15;17.00;68.80
18898;DHT22;9581;49.484;8.556;2023-04-03T14:24:44;18.10;66.50
18898;DHT22;9581;49.484;8.556;2023-04-03T14:27:16;16.00;65.00
18898;DHT22;9581;49.484;8.556;2023-04-03T14:29:43;15.10;65.20
18898;DHT22;9581;49.484;8.556;2023-04-03T14:32:11;19.30;65.90
18898;DHT22;9581;49.484;8.556;2023-04-03T14:34:39;22.00;61.70
18898;DHT22;9581;49.484;8.556;2023-04-03T14:37:10;23.80;55.20
18898;DHT22;9581;49.484;8.556;2023-04-03T14:39:37;26.00;49.20
18898;DHT22;9581;49.484;8.556;2023-04-03T14:42:06;28.00;46.20
18898;DHT22;9581;49.484;8.556;2023-04-03T14:44:32;29.30;41.50
18898;DHT22;9581;49.484;8.556;2023-04-03T14:46:59;29.60;39.60
18898;DHT22;9581;49.484;8.556;2023-04-03T14:49:28;29.20;36.80
18898;DHT22;9581;49.484;8.556;2023-04-03T14:51:55;28.80;37.70
18898;DHT22;9581;49.484;8.556;2023-04-03T14:54:23;29.70;36.00
18898;DHT22;9581;49.484;8.556;2023-04-03T14:56:53;30.60;35.00
18898;DHT22;9581;49.484;8.556;2023-04-03T14:59:22;31.40;34.40
18898;DHT22;9581;49.484;8.556;2023-04-03T15:01:49;31.10;33.20
18898;DHT22;9581;49.484;8.556;2023-04-03T15:04:17;28.70;35.10
18898;DHT22;9581;49.484;8.556;2023-04-03T15:06:45;29.80;34.60
18898;DHT22;9581;49.484;8.556;2023-04-03T15:09:19;29.50;34.50
18898;DHT22;9581;49.484;8.556;2023-04-03T15:11:47;29.40;36.30
18898;DHT22;9581;49.484;8.556;2023-04-03T15:14:14;29.70;34.50
18898;DHT22;9581;49.484;8.556;2023-04-03T15:16:42;27.80;35.60
18898;DHT22;9581;49.484;8.556;2023-04-03T15:19:10;29.10;36.10
18898;DHT22;9581;49.484;8.556;2023-04-03T15:21:37;29.90;34.40
18898;DHT22;9581;49.484;8.556;2023-04-03T15:24:04;30.00;35.00
18898;DHT22;9581;49.484;8.556;2023-04-03T15:26:31;29.90;34.20
18898;DHT22;9581;49.484;8.556;2023-04-03T15:28:58;27.60;35.60
18898;DHT22;9581;49.484;8.556;2023-04-03T15:31:25;24.70;37.90
18898;DHT22;9581;49.484;8.556;2023-04-03T15:33:54;25.10;37.40
18898;DHT22;9581;49.484;8.556;2023-04-03T15:36:21;24.60;36.90
18898;DHT22;9581;49.484;8.556;2023-04-03T15:38:47;24.70;36.30
18898;DHT22;9581;49.484;8.556;2023-04-03T15:41:14;23.70;36.90
18898;DHT22;9581;49.484;8.556;2023-04-03T15:43:41;23.60;37.60
18898;DHT22;9581;49.484;8.556;2023-04-03T15:46:08;23.80;38.40
18898;DHT22;9581;49.484;8.556;2023-04-03T15:48:36;22.70;36.60
18898;DHT22;9581;49.484;8.556;2023-04-03T15:51:05;21.60;38.20
18898;DHT22;9581;49.484;8.556;2023-04-03T15:53:32;21.30;38.70
18898;DHT22;9581;49.484;8.556;2023-04-03T15:55:58;20.90;38.50
18898;DHT22;9581;49.484;8.556;2023-04-03T15:58:25;19.60;40.20
18898;DHT22;9581;49.484;8.556;2023-04-03T16:00:52;20.30;39.80
18898;DHT22;9581;49.484;8.556;2023-04-03T16:03:20;18.30;41.00
18898;DHT22;9581;49.484;8.556;2023-04-03T16:05:47;16.70;40.60
18898;DHT22;9581;49.484;8.556;2023-04-03T16:08:16;16.70;42.00
18898;DHT22;9581;49.484;8.556;2023-04-03T16:10:43;16.50;42.60
18898;DHT22;9581;49.484;8.556;2023-04-03T16:13:12;16.90;43.20
18898;DHT22;9581;49.484;8.556;2023-04-03T16:15:40;16.70;44.10
18898;DHT22;9581;49.484;8.556;2023-04-03T16:18:08;16.10;43.40
18898;DHT22;9581;49.484;8.556;2023-04-03T16:20:35;16.00;43.40
18898;DHT22;9581;49.484;8.556;2023-04-03T16:23:02;15.70;43.70